sensor_id;sensor_type;location;lat;lon;timestamp;P1;durP1;ratioP1;P2;durP2;ratioP2
85691;SDS011;76122;47.806;18.914;2024-02-21T00:00:49;21.58;;;9.82;;
85691;SDS011;76122;47.806;18.914;2024-02-21T00:03:15;16.50;;;8.07;;
85691;SDS011;76122;47.806;18.914;2024-02-21T00:05:40;13.63;;;6.83;;
85691;SDS011;76122;47.806;18.914;2024-02-21T00:08:05;13.47;;;7.37;;
85691;SDS011;76122;47.806;18.914;2024-02-21T00:10:31;9.95;;;5.68;;
85691;SDS011;76122;47.806;18.914;2024-02-21T00:13:00;7.78;;;4.62;;
85691;SDS011;76122;47.806;18.914;2024-02-21T00:15:25;9.38;;;4.30;;
85691;SDS011;76122;47.806;18.914;2024-02-21T00:17:51;10.67;;;5.50;;
85691;SDS011;76122;47.806;18.914;2024-02-21T00:20:16;9.93;;;5.17;;
85691;SDS011;76122;47.806;18.914;2024-02-21T00:22:42;10.63;;;5.35;;
85691;SDS011;76122;47.806;18.914;2024-02-21T00:25:08;11.53;;;6.00;;
85691;SDS011;76122;47.806;18.914;2024-02-21T00:27:33;18.37;;;8.50;;
85691;SDS011;76122;47.806;18.914;2024-02-21T00:29:58;16.07;;;7.07;;
85691;SDS011;76122;47.806;18.914;2024-02-21T00:32:24;12.55;;;6.00;;
85691;SDS011;76122;47.806;18.914;2024-02-21T00:34:49;10.23;;;4.53;;
85691;SDS011;76122;47.806;18.914;2024-02-21T00:37:15;10.53;;;5.20;;
85691;SDS011;76122;47.806;18.914;2024-02-21T00:39:40;10.77;;;4.90;;
85691;SDS011;76122;47.806;18.914;2024-02-21T00:42:07;9.52;;;4.60;;
85691;SDS011;76122;47.806;18.914;2024-02-21T00:44:32;7.77;;;4.10;;
85691;SDS011;76122;47.806;18.914;2024-02-21T00:46:58;7.93;;;4.03;;
85691;SDS011;76122;47.806;18.914;2024-02-21T00:49:23;10.37;;;4.43;;
85691;SDS011;76122;47.806;18.914;2024-02-21T00:51:49;8.10;;;4.12;;
85691;SDS011;76122;47.806;18.914;2024-02-21T00:54:14;8.40;;;4.00;;
85691;SDS011;76122;47.806;18.914;2024-02-21T00:56:39;9.30;;;3.60;;
85691;SDS011;76122;47.806;18.914;2024-02-21T00:59:05;6.80;;;3.57;;
85691;SDS011;76122;47.806;18.914;2024-02-21T01:01:30;7.83;;;3.30;;
85691;SDS011;76122;47.806;18.914;2024-02-21T01:03:56;7.30;;;3.50;;
85691;SDS011;76122;47.806;18.914;2024-02-21T01:06:21;6.17;;;3.17;;
85691;SDS011;76122;47.806;18.914;2024-02-21T01:08:47;6.30;;;3.00;;
85691;SDS011;76122;47.806;18.914;2024-02-21T01:11:13;6.43;;;3.20;;
85691;SDS011;76122;47.806;18.914;2024-02-21T01:13:39;7.15;;;3.03;;
85691;SDS011;76122;47.806;18.914;2024-02-21T01:16:04;9.07;;;3.37;;
85691;SDS011;76122;47.806;18.914;2024-02-21T01:18:31;6.57;;;3.00;;
85691;SDS011;76122;47.806;18.914;2024-02-21T01:20:57;5.82;;;3.05;;
85691;SDS011;76122;47.806;18.914;2024-02-21T01:23:22;6.23;;;2.97;;
85691;SDS011;76122;47.806;18.914;2024-02-21T01:25:48;6.07;;;2.87;;
85691;SDS011;76122;47.806;18.914;2024-02-21T01:28:13;5.75;;;2.95;;
85691;SDS011;76122;47.806;18.914;2024-02-21T01:30:38;7.50;;;3.00;;
85691;SDS011;76122;47.806;18.914;2024-02-21T01:33:04;6.60;;;2.90;;
85691;SDS011;76122;47.806;18.914;2024-02-21T01:35:29;14.87;;;4.13;;
85691;SDS011;76122;47.806;18.914;2024-02-21T01:37:55;13.20;;;3.37;;
85691;SDS011;76122;47.806;18.914;2024-02-21T01:40:20;11.07;;;3.87;;
85691;SDS011;76122;47.806;18.914;2024-02-21T01:42:45;11.32;;;3.90;;
85691;SDS011;76122;47.806;18.914;2024-02-21T01:45:12;13.23;;;4.00;;
85691;SDS011;76122;47.806;18.914;2024-02-21T01:47:38;16.02;;;4.70;;
85691;SDS011;76122;47.806;18.914;2024-02-21T01:50:03;17.20;;;4.00;;
85691;SDS011;76122;47.806;18.914;2024-02-21T01:52:29;18.37;;;5.07;;
85691;SDS011;76122;47.806;18.914;2024-02-21T01:54:55;13.80;;;4.47;;
85691;SDS011;76122;47.806;18.914;2024-02-21T01:57:22;16.80;;;5.20;;
85691;SDS011;76122;47.806;18.914;2024-02-21T01:59:48;10.17;;;4.00;;
85691;SDS011;76122;47.806;18.914;2024-02-21T02:02:13;14.25;;;4.90;;
85691;SDS011;76122;47.806;18.914;2024-02-21T02:04:39;16.47;;;4.93;;
85691;SDS011;76122;47.806;18.914;2024-02-21T02:07:04;13.27;;;4.97;;
85691;SDS011;76122;47.806;18.914;2024-02-21T02:09:31;14.55;;;5.35;;
85691;SDS011;76122;47.806;18.914;2024-02-21T02:11:57;11.47;;;4.07;;
85691;SDS011;76122;47.806;18.914;2024-02-21T02:14:24;11.65;;;5.20;;
85691;SDS011;76122;47.806;18.914;2024-02-21T02:16:50;11.45;;;5.57;;
85691;SDS011;76122;47.806;18.914;2024-02-21T02:19:15;13.67;;;4.93;;
85691;SDS011;76122;47.806;18.914;2024-02-21T02:21:42;10.53;;;4.60;;
85691;SDS011;76122;47.806;18.914;2024-02-21T02:24:13;9.82;;;3.90;;
85691;SDS011;76122;47.806;18.914;2024-02-21T02:26:39;10.05;;;4.65;;
85691;SDS011;76122;47.806;18.914;2024-02-21T02:29:04;10.03;;;4.47;;
85691;SDS011;76122;47.806;18.914;2024-02-21T02:31:30;8.68;;;3.83;;
85691;SDS011;76122;47.806;18.914;2024-02-21T02:33:55;9.33;;;3.87;;
85691;SDS011;76122;47.806;18.914;2024-02-21T02:36:21;11.10;;;3.80;;
85691;SDS011;76122;47.806;18.914;2024-02-21T02:38:46;7.87;;;4.00;;
85691;SDS011;76122;47.806;18.914;2024-02-21T02:41:11;9.60;;;3.40;;
85691;SDS011;76122;47.806;18.914;2024-02-21T02:43:37;7.13;;;3.50;;
85691;SDS011;76122;47.806;18.914;2024-02-21T02:46:02;8.95;;;3.67;;
85691;SDS011;76122;47.806;18.914;2024-02-21T02:48:28;6.73;;;3.30;;
85691;SDS011;76122;47.806;18.914;2024-02-21T02:50:54;9.40;;;3.65;;
85691;SDS011;76122;47.806;18.914;2024-02-21T02:53:19;6.97;;;3.47;;
85691;SDS011;76122;47.806;18.914;2024-02-21T02:55:45;8.20;;;3.73;;
85691;SDS011;76122;47.806;18.914;2024-02-21T02:58:10;7.33;;;3.87;;
85691;SDS011;76122;47.806;18.914;2024-02-21T03:00:35;9.63;;;4.20;;
85691;SDS011;76122;47.806;18.914;2024-02-21T03:03:01;9.10;;;4.95;;
85691;SDS011;76122;47.806;18.914;2024-02-21T03:05:29;13.40;;;6.37;;
85691;SDS011;76122;47.806;18.914;2024-02-21T03:07:54;15.57;;;7.70;;
85691;SDS011;76122;47.806;18.914;2024-02-21T03:10:20;15.73;;;7.60;;
85691;SDS011;76122;47.806;18.914;2024-02-21T03:12:46;14.75;;;7.87;;
85691;SDS011;76122;47.806;18.914;2024-02-21T03:15:11;18.27;;;9.20;;
85691;SDS011;76122;47.806;18.914;2024-02-21T03:17:37;20.23;;;9.23;;
85691;SDS011;76122;47.806;18.914;2024-02-21T03:20:03;22.47;;;9.87;;
85691;SDS011;76122;47.806;18.914;2024-02-21T03:22:30;18.20;;;9.43;;
85691;SDS011;76122;47.806;18.914;2024-02-21T03:24:58;19.25;;;9.25;;
85691;SDS011;76122;47.806;18.914;2024-02-21T03:27:24;20.57;;;9.70;;
85691;SDS011;76122;47.806;18.914;2024-02-21T03:29:49;20.07;;;9.77;;
85691;SDS011;76122;47.806;18.914;2024-02-21T03:32:14;22.67;;;9.30;;
85691;SDS011;76122;47.806;18.914;2024-02-21T03:34:40;15.70;;;7.97;;
85691;SDS011;76122;47.806;18.914;2024-02-21T03:37:05;17.20;;;7.90;;
85691;SDS011;76122;47.806;18.914;2024-02-21T03:39:31;16.20;;;8.60;;
85691;SDS011;76122;47.806;18.914;2024-02-21T03:41:57;20.07;;;10.47;;
85691;SDS011;76122;47.806;18.914;2024-02-21T03:44:25;27.52;;;13.73;;
85691;SDS011;76122;47.806;18.914;2024-02-21T03:46:51;26.85;;;12.95;;
85691;SDS011;76122;47.806;18.914;2024-02-21T03:49:16;18.57;;;10.47;;
85691;SDS011;76122;47.806;18.914;2024-02-21T03:51:42;18.23;;;10.60;;
85691;SDS011;76122;47.806;18.914;2024-02-21T03:54:08;18.75;;;9.05;;
85691;SDS011;76122;47.806;18.914;2024-02-21T03:56:36;17.93;;;9.63;;
85691;SDS011;76122;47.806;18.914;2024-02-21T03:59:02;17.03;;;10.07;;
85691;SDS011;76122;47.806;18.914;2024-02-21T04:01:28;18.20;;;10.18;;
85691;SDS011;76122;47.806;18.914;2024-02-21T04:03:53;15.53;;;7.33;;
85691;SDS011;76122;47.806;18.914;2024-02-21T04:06:19;13.13;;;6.43;;
85691;SDS011;76122;47.806;18.914;2024-02-21T04:08:45;12.70;;;4.57;;
85691;SDS011;76122;47.806;18.914;2024-02-21T04:11:10;7.97;;;3.90;;
85691;SDS011;76122;47.806;18.914;2024-02-21T04:13:35;7.37;;;3.17;;
85691;SDS011;76122;47.806;18.914;2024-02-21T04:16:01;7.13;;;2.97;;
85691;SDS011;76122;47.806;18.914;2024-02-21T04:18:26;9.57;;;4.20;;
85691;SDS011;76122;47.806;18.914;2024-02-21T04:20:51;8.57;;;4.80;;
85691;SDS011;76122;47.806;18.914;2024-02-21T04:23:17;11.15;;;6.40;;
85691;SDS011;76122;47.806;18.914;2024-02-21T04:25:42;10.75;;;6.40;;
85691;SDS011;76122;47.806;18.914;2024-02-21T04:28:08;14.57;;;6.40;;
85691;SDS011;76122;47.806;18.914;2024-02-21T04:30:33;10.93;;;6.00;;
85691;SDS011;76122;47.806;18.914;2024-02-21T04:32:58;11.13;;;5.70;;
85691;SDS011;76122;47.806;18.914;2024-02-21T04:35:24;10.00;;;5.50;;
85691;SDS011;76122;47.806;18.914;2024-02-21T04:37:49;9.33;;;5.07;;
85691;SDS011;76122;47.806;18.914;2024-02-21T04:40:15;10.25;;;4.80;;
85691;SDS011;76122;47.806;18.914;2024-02-21T04:42:41;12.57;;;6.27;;
85691;SDS011;76122;47.806;18.914;2024-02-21T04:45:07;12.98;;;6.00;;
85691;SDS011;76122;47.806;18.914;2024-02-21T04:47:33;12.37;;;6.62;;
85691;SDS011;76122;47.806;18.914;2024-02-21T04:49:58;9.40;;;5.62;;
85691;SDS011;76122;47.806;18.914;2024-02-21T04:52:23;12.90;;;5.50;;
85691;SDS011;76122;47.806;18.914;2024-02-21T04:54:49;12.67;;;7.03;;
85691;SDS011;76122;47.806;18.914;2024-02-21T04:57:15;13.40;;;7.23;;
85691;SDS011;76122;47.806;18.914;2024-02-21T04:59:43;16.37;;;6.78;;
85691;SDS011;76122;47.806;18.914;2024-02-21T05:02:09;13.00;;;6.75;;
85691;SDS011;76122;47.806;18.914;2024-02-21T05:04:35;11.00;;;6.30;;
85691;SDS011;76122;47.806;18.914;2024-02-21T05:07:02;12.52;;;6.90;;
85691;SDS011;76122;47.806;18.914;2024-02-21T05:09:27;14.57;;;6.73;;
85691;SDS011;76122;47.806;18.914;2024-02-21T05:11:52;10.13;;;6.20;;
85691;SDS011;76122;47.806;18.914;2024-02-21T05:14:18;11.40;;;7.20;;
85691;SDS011;76122;47.806;18.914;2024-02-21T05:16:43;11.90;;;6.63;;
85691;SDS011;76122;47.806;18.914;2024-02-21T05:19:08;15.80;;;6.80;;
85691;SDS011;76122;47.806;18.914;2024-02-21T05:21:34;12.23;;;6.72;;
85691;SDS011;76122;47.806;18.914;2024-02-21T05:23:59;13.53;;;7.70;;
85691;SDS011;76122;47.806;18.914;2024-02-21T05:26:25;13.57;;;6.63;;
85691;SDS011;76122;47.806;18.914;2024-02-21T05:28:52;11.25;;;5.80;;
85691;SDS011;76122;47.806;18.914;2024-02-21T05:31:17;13.33;;;6.60;;
85691;SDS011;76122;47.806;18.914;2024-02-21T05:33:43;10.15;;;5.95;;
85691;SDS011;76122;47.806;18.914;2024-02-21T05:36:09;11.70;;;5.50;;
85691;SDS011;76122;47.806;18.914;2024-02-21T05:38:34;14.45;;;6.00;;
85691;SDS011;76122;47.806;18.914;2024-02-21T05:41:00;11.87;;;5.57;;
85691;SDS011;76122;47.806;18.914;2024-02-21T05:43:26;9.70;;;5.73;;
85691;SDS011;76122;47.806;18.914;2024-02-21T05:45:51;11.65;;;6.22;;
85691;SDS011;76122;47.806;18.914;2024-02-21T05:48:16;11.68;;;5.50;;
85691;SDS011;76122;47.806;18.914;2024-02-21T05:50:42;10.10;;;5.80;;
85691;SDS011;76122;47.806;18.914;2024-02-21T05:53:07;10.80;;;5.70;;
85691;SDS011;76122;47.806;18.914;2024-02-21T05:55:32;13.07;;;5.93;;
85691;SDS011;76122;47.806;18.914;2024-02-21T05:57:58;11.03;;;5.90;;
85691;SDS011;76122;47.806;18.914;2024-02-21T06:00:23;13.60;;;7.10;;
85691;SDS011;76122;47.806;18.914;2024-02-21T06:02:48;12.60;;;7.33;;
85691;SDS011;76122;47.806;18.914;2024-02-21T06:05:14;15.90;;;6.90;;
85691;SDS011;76122;47.806;18.914;2024-02-21T06:07:40;11.63;;;6.87;;
85691;SDS011;76122;47.806;18.914;2024-02-21T06:10:06;11.30;;;6.47;;
85691;SDS011;76122;47.806;18.914;2024-02-21T06:12:32;12.93;;;6.53;;
85691;SDS011;76122;47.806;18.914;2024-02-21T06:14:58;13.43;;;7.40;;
85691;SDS011;76122;47.806;18.914;2024-02-21T06:17:23;12.67;;;7.33;;
85691;SDS011;76122;47.806;18.914;2024-02-21T06:19:48;14.17;;;8.23;;
85691;SDS011;76122;47.806;18.914;2024-02-21T06:22:14;14.73;;;7.60;;
85691;SDS011;76122;47.806;18.914;2024-02-21T06:24:39;17.17;;;8.25;;
85691;SDS011;76122;47.806;18.914;2024-02-21T06:27:05;12.77;;;7.43;;
85691;SDS011;76122;47.806;18.914;2024-02-21T06:29:33;15.38;;;7.93;;
85691;SDS011;76122;47.806;18.914;2024-02-21T06:31:59;15.53;;;8.23;;
85691;SDS011;76122;47.806;18.914;2024-02-21T06:34:25;16.17;;;8.95;;
85691;SDS011;76122;47.806;18.914;2024-02-21T06:36:51;16.63;;;9.23;;
85691;SDS011;76122;47.806;18.914;2024-02-21T06:39:16;20.67;;;9.82;;
85691;SDS011;76122;47.806;18.914;2024-02-21T06:41:42;18.20;;;9.93;;
85691;SDS011;76122;47.806;18.914;2024-02-21T06:44:07;15.10;;;8.50;;
85691;SDS011;76122;47.806;18.914;2024-02-21T06:46:33;17.08;;;9.05;;
85691;SDS011;76122;47.806;18.914;2024-02-21T06:48:58;15.90;;;8.50;;
85691;SDS011;76122;47.806;18.914;2024-02-21T06:51:25;23.83;;;13.10;;
85691;SDS011;76122;47.806;18.914;2024-02-21T06:53:50;22.48;;;10.77;;
85691;SDS011;76122;47.806;18.914;2024-02-21T06:56:16;22.63;;;11.90;;
85691;SDS011;76122;47.806;18.914;2024-02-21T06:58:41;22.50;;;12.30;;
85691;SDS011;76122;47.806;18.914;2024-02-21T07:01:07;17.47;;;8.77;;
85691;SDS011;76122;47.806;18.914;2024-02-21T07:03:32;19.33;;;7.80;;
85691;SDS011;76122;47.806;18.914;2024-02-21T07:05:58;15.70;;;8.03;;
85691;SDS011;76122;47.806;18.914;2024-02-21T07:08:23;18.00;;;8.57;;
85691;SDS011;76122;47.806;18.914;2024-02-21T07:10:49;16.53;;;8.07;;
85691;SDS011;76122;47.806;18.914;2024-02-21T07:13:14;15.20;;;7.68;;
85691;SDS011;76122;47.806;18.914;2024-02-21T07:15:40;16.50;;;7.62;;
85691;SDS011;76122;47.806;18.914;2024-02-21T07:18:06;14.50;;;6.57;;
85691;SDS011;76122;47.806;18.914;2024-02-21T07:20:31;16.07;;;7.03;;
85691;SDS011;76122;47.806;18.914;2024-02-21T07:22:58;18.48;;;8.15;;
85691;SDS011;76122;47.806;18.914;2024-02-21T07:25:24;15.30;;;7.10;;
85691;SDS011;76122;47.806;18.914;2024-02-21T07:27:50;16.00;;;7.70;;
85691;SDS011;76122;47.806;18.914;2024-02-21T07:30:15;15.57;;;6.78;;
85691;SDS011;76122;47.806;18.914;2024-02-21T07:32:40;14.37;;;6.83;;
85691;SDS011;76122;47.806;18.914;2024-02-21T07:35:06;18.73;;;7.07;;
85691;SDS011;76122;47.806;18.914;2024-02-21T07:37:35;13.15;;;5.68;;
85691;SDS011;76122;47.806;18.914;2024-02-21T07:40:01;12.70;;;6.40;;
85691;SDS011;76122;47.806;18.914;2024-02-21T07:42:27;13.33;;;6.37;;
85691;SDS011;76122;47.806;18.914;2024-02-21T07:44:53;12.45;;;5.35;;
85691;SDS011;76122;47.806;18.914;2024-02-21T07:47:18;13.07;;;5.82;;
85691;SDS011;76122;47.806;18.914;2024-02-21T07:49:44;12.80;;;5.20;;
85691;SDS011;76122;47.806;18.914;2024-02-21T07:52:09;11.43;;;5.50;;
85691;SDS011;76122;47.806;18.914;2024-02-21T07:54:35;15.90;;;5.50;;
85691;SDS011;76122;47.806;18.914;2024-02-21T07:57:00;11.20;;;5.60;;
85691;SDS011;76122;47.806;18.914;2024-02-21T07:59:25;13.47;;;5.97;;
85691;SDS011;76122;47.806;18.914;2024-02-21T08:01:51;16.57;;;6.50;;
85691;SDS011;76122;47.806;18.914;2024-02-21T08:04:16;16.13;;;7.17;;
85691;SDS011;76122;47.806;18.914;2024-02-21T08:06:42;13.80;;;8.50;;
85691;SDS011;76122;47.806;18.914;2024-02-21T08:09:08;15.27;;;7.00;;
85691;SDS011;76122;47.806;18.914;2024-02-21T08:11:33;11.83;;;5.97;;
85691;SDS011;76122;47.806;18.914;2024-02-21T08:13:59;14.33;;;6.67;;
85691;SDS011;76122;47.806;18.914;2024-02-21T08:16:24;15.50;;;8.38;;
85691;SDS011;76122;47.806;18.914;2024-02-21T08:18:50;14.63;;;8.07;;
85691;SDS011;76122;47.806;18.914;2024-02-21T08:21:16;15.73;;;6.65;;
85691;SDS011;76122;47.806;18.914;2024-02-21T08:23:41;12.02;;;6.18;;
85691;SDS011;76122;47.806;18.914;2024-02-21T08:26:07;13.30;;;6.00;;
85691;SDS011;76122;47.806;18.914;2024-02-21T08:28:32;12.63;;;5.00;;
85691;SDS011;76122;47.806;18.914;2024-02-21T08:30:58;10.82;;;4.90;;
85691;SDS011;76122;47.806;18.914;2024-02-21T08:33:23;11.18;;;5.60;;
85691;SDS011;76122;47.806;18.914;2024-02-21T08:35:51;11.57;;;5.07;;
85691;SDS011;76122;47.806;18.914;2024-02-21T08:38:17;11.00;;;5.32;;
85691;SDS011;76122;47.806;18.914;2024-02-21T08:40:42;27.53;;;13.03;;
85691;SDS011;76122;47.806;18.914;2024-02-21T08:43:07;18.67;;;8.10;;
85691;SDS011;76122;47.806;18.914;2024-02-21T08:45:33;14.48;;;8.48;;
85691;SDS011;76122;47.806;18.914;2024-02-21T08:47:58;21.77;;;12.23;;
85691;SDS011;76122;47.806;18.914;2024-02-21T08:50:23;15.80;;;8.47;;
85691;SDS011;76122;47.806;18.914;2024-02-21T08:52:49;14.17;;;7.60;;
85691;SDS011;76122;47.806;18.914;2024-02-21T08:55:14;13.43;;;5.60;;
85691;SDS011;76122;47.806;18.914;2024-02-21T08:57:40;16.23;;;5.10;;
85691;SDS011;76122;47.806;18.914;2024-02-21T09:00:05;13.07;;;4.97;;
85691;SDS011;76122;47.806;18.914;2024-02-21T09:02:40;9.77;;;4.77;;
85691;SDS011;76122;47.806;18.914;2024-02-21T09:05:08;12.75;;;4.60;;
85691;SDS011;76122;47.806;18.914;2024-02-21T09:07:33;9.55;;;4.07;;
85691;SDS011;76122;47.806;18.914;2024-02-21T09:09:59;12.10;;;4.03;;
85691;SDS011;76122;47.806;18.914;2024-02-21T09:12:24;12.07;;;4.27;;
85691;SDS011;76122;47.806;18.914;2024-02-21T09:14:50;14.53;;;4.80;;
85691;SDS011;76122;47.806;18.914;2024-02-21T09:17:18;16.13;;;6.67;;
85691;SDS011;76122;47.806;18.914;2024-02-21T09:19:45;12.68;;;4.60;;
85691;SDS011;76122;47.806;18.914;2024-02-21T09:22:13;12.30;;;5.28;;
85691;SDS011;76122;47.806;18.914;2024-02-21T09:24:39;11.17;;;5.40;;
85691;SDS011;76122;47.806;18.914;2024-02-21T09:27:04;11.12;;;4.65;;
85691;SDS011;76122;47.806;18.914;2024-02-21T09:29:33;11.18;;;4.68;;
85691;SDS011;76122;47.806;18.914;2024-02-21T09:31:59;11.23;;;5.65;;
85691;SDS011;76122;47.806;18.914;2024-02-21T09:34:24;13.75;;;5.60;;
85691;SDS011;76122;47.806;18.914;2024-02-21T09:36:50;17.70;;;8.60;;
85691;SDS011;76122;47.806;18.914;2024-02-21T09:39:15;14.23;;;5.90;;
85691;SDS011;76122;47.806;18.914;2024-02-21T09:41:45;11.73;;;4.22;;
85691;SDS011;76122;47.806;18.914;2024-02-21T09:44:12;9.85;;;3.85;;
85691;SDS011;76122;47.806;18.914;2024-02-21T09:51:51;13.50;;;4.40;;
85691;SDS011;76122;47.806;18.914;2024-02-21T09:54:17;9.90;;;4.25;;
85691;SDS011;76122;47.806;18.914;2024-02-21T09:56:46;11.10;;;4.23;;
85691;SDS011;76122;47.806;18.914;2024-02-21T09:59:13;10.60;;;4.25;;
85691;SDS011;76122;47.806;18.914;2024-02-21T10:01:40;16.85;;;8.02;;
85691;SDS011;76122;47.806;18.914;2024-02-21T10:04:07;11.23;;;4.40;;
85691;SDS011;76122;47.806;18.914;2024-02-21T10:06:32;14.20;;;5.60;;
85691;SDS011;76122;47.806;18.914;2024-02-21T10:08:58;18.17;;;6.53;;
85691;SDS011;76122;47.806;18.914;2024-02-21T10:11:24;12.40;;;5.00;;
85691;SDS011;76122;47.806;18.914;2024-02-21T10:13:50;12.48;;;4.28;;
85691;SDS011;76122;47.806;18.914;2024-02-21T10:16:16;11.83;;;4.60;;
85691;SDS011;76122;47.806;18.914;2024-02-21T10:18:41;15.98;;;6.72;;
85691;SDS011;76122;47.806;18.914;2024-02-21T10:21:07;16.00;;;6.30;;
85691;SDS011;76122;47.806;18.914;2024-02-21T10:23:45;15.23;;;6.13;;
85691;SDS011;76122;47.806;18.914;2024-02-21T10:26:13;13.80;;;5.53;;
85691;SDS011;76122;47.806;18.914;2024-02-21T10:28:39;12.30;;;4.50;;
85691;SDS011;76122;47.806;18.914;2024-02-21T10:31:07;12.25;;;6.12;;
85691;SDS011;76122;47.806;18.914;2024-02-21T10:33:36;11.12;;;4.65;;
85691;SDS011;76122;47.806;18.914;2024-02-21T10:36:06;13.60;;;4.20;;
85691;SDS011;76122;47.806;18.914;2024-02-21T10:38:33;11.55;;;3.72;;
85691;SDS011;76122;47.806;18.914;2024-02-21T10:40:58;11.65;;;4.00;;
85691;SDS011;76122;47.806;18.914;2024-02-21T10:43:24;13.50;;;4.43;;
85691;SDS011;76122;47.806;18.914;2024-02-21T10:45:50;14.48;;;5.87;;
85691;SDS011;76122;47.806;18.914;2024-02-21T10:48:19;13.13;;;5.37;;
85691;SDS011;76122;47.806;18.914;2024-02-21T10:50:57;11.25;;;4.87;;
85691;SDS011;76122;47.806;18.914;2024-02-21T10:53:38;9.13;;;4.47;;
85691;SDS011;76122;47.806;18.914;2024-02-21T10:56:16;10.30;;;4.30;;
85691;SDS011;76122;47.806;18.914;2024-02-21T10:58:50;11.32;;;3.92;;
85691;SDS011;76122;47.806;18.914;2024-02-21T11:01:16;11.47;;;3.33;;
85691;SDS011;76122;47.806;18.914;2024-02-21T11:03:43;13.35;;;3.45;;
85691;SDS011;76122;47.806;18.914;2024-02-21T11:06:10;8.85;;;3.75;;
85691;SDS011;76122;47.806;18.914;2024-02-21T11:08:36;14.10;;;3.87;;
85691;SDS011;76122;47.806;18.914;2024-02-21T11:11:02;13.70;;;5.87;;
85691;SDS011;76122;47.806;18.914;2024-02-21T11:13:46;14.10;;;5.27;;
85691;SDS011;76122;47.806;18.914;2024-02-21T11:16:11;13.50;;;5.10;;
85691;SDS011;76122;47.806;18.914;2024-02-21T11:18:45;13.20;;;5.93;;
85691;SDS011;76122;47.806;18.914;2024-02-21T11:21:11;11.63;;;4.50;;
85691;SDS011;76122;47.806;18.914;2024-02-21T11:23:36;11.10;;;4.47;;
85691;SDS011;76122;47.806;18.914;2024-02-21T11:28:31;13.93;;;5.90;;
85691;SDS011;76122;47.806;18.914;2024-02-21T11:31:10;12.40;;;5.15;;
85691;SDS011;76122;47.806;18.914;2024-02-21T11:33:42;11.65;;;4.43;;
85691;SDS011;76122;47.806;18.914;2024-02-21T11:36:11;13.27;;;3.63;;
85691;SDS011;76122;47.806;18.914;2024-02-21T11:38:51;15.43;;;3.67;;
85691;SDS011;76122;47.806;18.914;2024-02-21T11:41:17;13.82;;;3.72;;
85691;SDS011;76122;47.806;18.914;2024-02-21T11:43:43;11.13;;;3.10;;
85691;SDS011;76122;47.806;18.914;2024-02-21T11:46:08;9.23;;;3.60;;
85691;SDS011;76122;47.806;18.914;2024-02-21T11:48:34;12.68;;;4.97;;
85691;SDS011;76122;47.806;18.914;2024-02-21T11:51:00;12.33;;;3.80;;
85691;SDS011;76122;47.806;18.914;2024-02-21T11:53:25;9.80;;;3.75;;
85691;SDS011;76122;47.806;18.914;2024-02-21T11:55:55;10.55;;;2.95;;
85691;SDS011;76122;47.806;18.914;2024-02-21T11:58:21;10.40;;;3.42;;
85691;SDS011;76122;47.806;18.914;2024-02-21T12:00:47;9.17;;;3.00;;
85691;SDS011;76122;47.806;18.914;2024-02-21T12:03:13;6.37;;;2.60;;
85691;SDS011;76122;47.806;18.914;2024-02-21T12:05:38;12.57;;;3.37;;
85691;SDS011;76122;47.806;18.914;2024-02-21T12:08:04;15.00;;;6.00;;
85691;SDS011;76122;47.806;18.914;2024-02-21T12:10:30;12.80;;;4.40;;
85691;SDS011;76122;47.806;18.914;2024-02-21T12:13:08;17.40;;;5.63;;
85691;SDS011;76122;47.806;18.914;2024-02-21T12:15:33;17.23;;;9.00;;
85691;SDS011;76122;47.806;18.914;2024-02-21T12:17:59;13.60;;;5.30;;
85691;SDS011;76122;47.806;18.914;2024-02-21T12:20:25;11.67;;;4.00;;
85691;SDS011;76122;47.806;18.914;2024-02-21T12:22:50;12.77;;;4.68;;
85691;SDS011;76122;47.806;18.914;2024-02-21T12:25:17;21.02;;;10.07;;
85691;SDS011;76122;47.806;18.914;2024-02-21T12:27:48;15.57;;;8.10;;
85691;SDS011;76122;47.806;18.914;2024-02-21T12:30:14;13.62;;;5.05;;
85691;SDS011;76122;47.806;18.914;2024-02-21T12:32:40;25.93;;;10.70;;
85691;SDS011;76122;47.806;18.914;2024-02-21T12:35:06;20.45;;;10.13;;
85691;SDS011;76122;47.806;18.914;2024-02-21T12:37:32;19.30;;;8.20;;
85691;SDS011;76122;47.806;18.914;2024-02-21T12:39:58;20.77;;;9.10;;
85691;SDS011;76122;47.806;18.914;2024-02-21T12:42:23;18.27;;;7.53;;
85691;SDS011;76122;47.806;18.914;2024-02-21T12:44:50;17.83;;;5.57;;
85691;SDS011;76122;47.806;18.914;2024-02-21T12:47:17;15.13;;;5.03;;
85691;SDS011;76122;47.806;18.914;2024-02-21T12:49:44;13.50;;;5.82;;
85691;SDS011;76122;47.806;18.914;2024-02-21T12:52:10;14.23;;;4.22;;
85691;SDS011;76122;47.806;18.914;2024-02-21T12:54:35;8.50;;;3.17;;
85691;SDS011;76122;47.806;18.914;2024-02-21T12:57:01;11.10;;;2.90;;
85691;SDS011;76122;47.806;18.914;2024-02-21T12:59:28;10.30;;;3.00;;
85691;SDS011;76122;47.806;18.914;2024-02-21T13:01:54;11.90;;;2.72;;
85691;SDS011;76122;47.806;18.914;2024-02-21T13:04:19;10.50;;;2.63;;
85691;SDS011;76122;47.806;18.914;2024-02-21T13:06:46;10.98;;;2.50;;
85691;SDS011;76122;47.806;18.914;2024-02-21T13:09:12;13.77;;;2.90;;
85691;SDS011;76122;47.806;18.914;2024-02-21T13:11:38;7.82;;;2.45;;
85691;SDS011;76122;47.806;18.914;2024-02-21T13:14:05;7.93;;;3.10;;
85691;SDS011;76122;47.806;18.914;2024-02-21T13:16:30;9.07;;;3.20;;
85691;SDS011;76122;47.806;18.914;2024-02-21T13:18:56;11.30;;;3.10;;
85691;SDS011;76122;47.806;18.914;2024-02-21T13:21:21;11.57;;;3.80;;
85691;SDS011;76122;47.806;18.914;2024-02-21T13:23:47;10.70;;;3.23;;
85691;SDS011;76122;47.806;18.914;2024-02-21T13:26:12;8.30;;;3.70;;
85691;SDS011;76122;47.806;18.914;2024-02-21T13:28:39;9.95;;;3.58;;
85691;SDS011;76122;47.806;18.914;2024-02-21T13:31:04;10.30;;;3.17;;
85691;SDS011;76122;47.806;18.914;2024-02-21T13:33:29;10.33;;;3.47;;
85691;SDS011;76122;47.806;18.914;2024-02-21T13:35:55;10.38;;;3.53;;
85691;SDS011;76122;47.806;18.914;2024-02-21T13:38:20;10.10;;;3.60;;
85691;SDS011;76122;47.806;18.914;2024-02-21T13:40:46;14.33;;;3.80;;
85691;SDS011;76122;47.806;18.914;2024-02-21T13:43:11;11.63;;;3.83;;
85691;SDS011;76122;47.806;18.914;2024-02-21T13:45:37;28.65;;;14.73;;
85691;SDS011;76122;47.806;18.914;2024-02-21T13:48:03;18.63;;;8.60;;
85691;SDS011;76122;47.806;18.914;2024-02-21T13:50:31;14.80;;;4.32;;
85691;SDS011;76122;47.806;18.914;2024-02-21T13:52:57;15.50;;;7.37;;
85691;SDS011;76122;47.806;18.914;2024-02-21T13:55:22;20.23;;;7.70;;
85691;SDS011;76122;47.806;18.914;2024-02-21T13:57:51;27.20;;;9.43;;
85691;SDS011;76122;47.806;18.914;2024-02-21T14:00:16;23.90;;;6.50;;
85691;SDS011;76122;47.806;18.914;2024-02-21T14:02:43;11.38;;;4.35;;
85691;SDS011;76122;47.806;18.914;2024-02-21T14:05:09;12.97;;;3.80;;
85691;SDS011;76122;47.806;18.914;2024-02-21T14:07:34;10.32;;;3.72;;
85691;SDS011;76122;47.806;18.914;2024-02-21T14:10:00;16.90;;;6.30;;
85691;SDS011;76122;47.806;18.914;2024-02-21T14:12:25;11.73;;;4.50;;
85691;SDS011;76122;47.806;18.914;2024-02-21T14:14:50;13.10;;;4.27;;
85691;SDS011;76122;47.806;18.914;2024-02-21T14:17:17;13.62;;;4.70;;
85691;SDS011;76122;47.806;18.914;2024-02-21T14:19:42;15.37;;;4.57;;
85691;SDS011;76122;47.806;18.914;2024-02-21T14:22:08;14.77;;;6.40;;
85691;SDS011;76122;47.806;18.914;2024-02-21T14:24:33;30.73;;;15.00;;